createdAt,value
2018-09-17T00:05:34.913Z,99.90
2018-09-17T00:08:05.013Z,99.90
2018-09-17T00:13:51.207Z,99.90
2018-09-17T00:16:48.665Z,99.90
2018-09-17T00:43:25.755Z,99.90
2018-09-17T00:45:58.737Z,99.90
2018-09-17T00:54:02.369Z,99.90
2018-09-17T00:56:38.246Z,99.90
2018-09-17T01:23:23.514Z,99.90
2018-09-17T01:29:03.724Z,99.90
2018-09-17T01:31:34.743Z,99.90
2018-09-17T01:34:10.418Z,99.90
2018-09-17T01:36:55.981Z,99.90
2018-09-17T02:06:14.257Z,99.90
2018-09-17T02:08:44.901Z,99.90
2018-09-17T02:11:14.217Z,99.90
2018-09-17T02:13:45.633Z,99.90
2018-09-17T02:16:19.081Z,99.90
2018-09-17T02:18:47.931Z,99.90
2018-09-17T02:21:22.537Z,99.90
2018-09-17T02:23:57.609Z,99.90
2018-09-17T02:26:28.539Z,99.90
2018-09-17T02:28:58.667Z,99.90
2018-09-17T02:31:47.326Z,99.90
2018-09-17T02:34:17.382Z,99.90
2018-09-17T02:50:41.480Z,99.90
2018-09-17T02:53:12.317Z,99.90
2018-09-17T02:58:35.315Z,99.90
2018-09-17T03:01:06.996Z,99.90
2018-09-17T03:03:35.661Z,99.90
2018-09-17T03:06:05.534Z,99.90
2018-09-17T03:08:38.732Z,99.90
2018-09-17T03:39:39.148Z,99.90
2018-09-17T03:42:23.225Z,99.90
2018-09-17T03:44:56.295Z,99.90
2018-09-17T03:47:48.364Z,99.90
2018-09-17T03:53:13.345Z,99.90
2018-09-17T03:56:23.055Z,99.90
2018-09-17T03:58:55.777Z,99.90
2018-09-17T04:01:24.995Z,99.90
2018-09-17T04:03:55.831Z,99.90
2018-09-17T04:06:31.662Z,99.90
2018-09-17T04:09:02.639Z,99.90
2018-09-17T04:11:33.874Z,99.90
2018-09-17T04:19:55.621Z,99.90
2018-09-17T04:25:07.210Z,99.90
2018-09-17T04:33:36.041Z,99.90
2018-09-17T04:36:23.636Z,99.90
2018-09-17T04:39:18.364Z,99.90
2018-09-17T04:48:59.072Z,99.90
2018-09-17T04:51:31.288Z,99.90
2018-09-17T04:54:08.695Z,99.90
2018-09-17T04:56:38.861Z,99.90
2018-09-17T04:59:08.854Z,99.90
2018-09-17T05:01:48.321Z,99.90
2018-09-17T05:04:21.384Z,99.90
2018-09-17T05:06:52.138Z,99.90
2018-09-17T05:09:23.305Z,99.90
2018-09-17T05:11:53.547Z,99.90
2018-09-17T05:14:22.870Z,99.90
2018-09-17T05:16:52.402Z,99.90
2018-09-17T05:19:22.017Z,99.90
2018-09-17T05:21:57.847Z,99.90
2018-09-17T05:24:30.691Z,99.90
2018-09-17T05:27:11.143Z,99.90
2018-09-17T05:29:43.652Z,99.90
2018-09-17T05:37:41.919Z,99.90
2018-09-17T05:40:18.690Z,99.90
2018-09-17T06:07:04.846Z,99.90
2018-09-17T06:09:59.498Z,99.90
2018-09-17T06:24:04.101Z,99.90
2018-09-17T06:27:32.904Z,99.90
2018-09-17T06:30:42.516Z,99.90
2018-09-17T06:33:31.746Z,99.90
2018-09-17T06:36:04.916Z,99.90
2018-09-17T06:38:37.079Z,99.90
2018-09-17T06:41:12.037Z,99.90
2018-09-17T06:43:44.820Z,99.90
2018-09-17T06:51:37.295Z,99.90
2018-09-17T06:54:06.701Z,99.90
2018-09-17T06:59:18.264Z,99.90
2018-09-17T07:01:47.250Z,99.90
2018-09-17T07:04:21.057Z,99.90
2018-09-17T07:09:34.934Z,99.90
2018-09-17T07:14:44.707Z,99.90
2018-09-17T07:17:13.638Z,99.90
2018-09-17T07:20:03.947Z,99.90
2018-09-17T07:27:56.421Z,99.90
2018-09-17T07:30:31.858Z,99.90
2018-09-17T07:36:39.627Z,99.90
2018-09-17T07:39:26.893Z,99.90
2018-09-17T07:45:02.285Z,99.90
2018-09-17T08:01:15.069Z,99.90
2018-09-17T08:03:44.077Z,99.90
2018-09-17T08:06:15.321Z,99.90
2018-09-17T08:08:49.313Z,99.90
2018-09-17T08:11:21.577Z,99.90
2018-09-17T08:16:35.468Z,99.90
2018-09-17T08:19:06.525Z,99.90
2018-09-17T08:21:35.371Z,99.90
2018-09-17T08:24:07.651Z,99.90
2018-09-17T08:26:39.336Z,99.90
2018-09-17T08:29:13.394Z,99.90
2018-09-17T08:31:44.472Z,99.90
2018-09-17T08:34:19.760Z,99.90
2018-09-17T08:36:51.240Z,99.90
2018-09-17T08:39:24.265Z,99.90
2018-09-17T08:41:56.393Z,99.90
2018-09-17T08:44:27.601Z,99.90
2018-09-17T08:46:57.041Z,99.90
2018-09-17T08:49:29.750Z,99.90
2018-09-17T08:51:58.488Z,99.90
2018-09-17T08:54:26.928Z,99.90
2018-09-17T08:57:06.298Z,99.90
2018-09-17T08:59:41.681Z,99.90
2018-09-17T09:02:17.647Z,99.90
2018-09-17T09:04:55.366Z,99.90
2018-09-17T09:07:29.567Z,99.90
2018-09-17T09:10:10.445Z,99.90
2018-09-17T09:12:43.476Z,99.90
2018-09-17T09:15:19.140Z,99.90
2018-09-17T09:17:53.031Z,99.90
2018-09-17T09:20:21.526Z,99.90
2018-09-17T09:22:54.246Z,99.90
2018-09-17T09:25:32.810Z,99.90
2018-09-17T09:28:01.349Z,99.90
2018-09-17T09:30:33.324Z,99.90
2018-09-17T09:33:09.513Z,99.90
2018-09-17T09:59:38.281Z,99.90
2018-09-17T10:02:12.808Z,99.90
2018-09-17T10:04:41.775Z,99.90
2018-09-17T10:07:10.154Z,99.90
2018-09-17T10:14:51.507Z,99.90
2018-09-17T10:17:35.884Z,99.90
2018-09-17T10:20:05.461Z,99.90
2018-09-17T10:22:35.174Z,99.90
2018-09-17T10:25:09.721Z,99.90
2018-09-17T10:27:41.155Z,99.90
2018-09-17T10:30:09.579Z,99.90
2018-09-17T10:32:38.736Z,99.90
2018-09-17T10:35:14.126Z,99.90
2018-09-17T10:37:42.682Z,99.90
2018-09-17T10:40:18.628Z,99.90
2018-09-17T10:42:47.155Z,99.90
2018-09-17T10:45:15.858Z,99.90
2018-09-17T10:47:44.524Z,99.90
2018-09-17T10:50:13.273Z,99.90
2018-09-17T10:52:42.006Z,99.90
2018-09-17T10:55:14.092Z,99.90
2018-09-17T10:57:44.417Z,99.90
2018-09-17T11:00:12.994Z,99.90
2018-09-17T11:02:41.534Z,99.90
2018-09-17T11:05:14.398Z,99.90
2018-09-17T11:07:42.809Z,99.90
2018-09-17T11:10:21.948Z,99.90
2018-09-17T11:12:52.417Z,99.90
2018-09-17T11:15:29.371Z,99.90
2018-09-17T11:17:57.922Z,98.70
2018-09-17T11:20:27.944Z,98.10
2018-09-17T11:22:56.687Z,99.20
2018-09-17T11:25:27.505Z,99.10
2018-09-17T11:27:59.195Z,96.80
2018-09-17T11:30:30.940Z,97.80
2018-09-17T11:32:59.605Z,98.00
2018-09-17T11:35:35.536Z,97.50
2018-09-17T11:38:07.363Z,97.70
2018-09-17T11:40:38.841Z,97.30
2018-09-17T11:43:07.371Z,94.70
2018-09-17T11:45:35.818Z,94.60
2018-09-17T11:48:04.797Z,95.50
2018-09-17T11:50:33.277Z,96.20
2018-09-17T11:53:16.334Z,96.70
2018-09-17T11:55:44.818Z,95.80
2018-09-17T11:58:17.272Z,94.70
2018-09-17T12:00:55.792Z,94.50
2018-09-17T12:06:22.188Z,93.40
2018-09-17T12:08:51.555Z,94.00
2018-09-17T12:14:07.009Z,92.50
2018-09-17T12:16:38.367Z,91.30
2018-09-17T12:19:06.776Z,90.30
2018-09-17T12:21:44.595Z,91.40
2018-09-17T12:24:47.519Z,92.10
2018-09-17T12:27:17.721Z,93.00
2018-09-17T12:29:47.502Z,92.60
2018-09-17T12:32:16.114Z,91.90
2018-09-17T12:34:44.721Z,87.40
2018-09-17T12:37:13.829Z,88.80
2018-09-17T12:40:23.503Z,86.10
2018-09-17T12:56:50.639Z,87.00
2018-09-17T13:12:57.523Z,81.80
2018-09-17T13:15:27.873Z,81.50
2018-09-17T13:18:07.046Z,79.80
2018-09-17T13:20:42.785Z,78.90
2018-09-17T13:23:11.783Z,78.40
2018-09-17T13:25:47.985Z,79.30
2018-09-17T13:41:50.889Z,78.70
2018-09-17T13:44:19.681Z,79.00
2018-09-17T13:46:48.675Z,75.80
2018-09-17T13:49:17.380Z,73.30
2018-09-17T13:54:23.171Z,74.80
2018-09-17T13:59:40.672Z,73.20
2018-09-17T14:02:15.888Z,76.00
2018-09-17T14:04:46.804Z,71.30
2018-09-17T14:07:24.461Z,71.90
2018-09-17T14:09:58.901Z,67.00
2018-09-17T14:12:31.408Z,66.10
2018-09-17T14:17:48.423Z,69.50
2018-09-17T14:20:17.000Z,68.00
2018-09-17T14:22:53.472Z,74.00
2018-09-17T14:25:25.266Z,73.10
2018-09-17T14:27:56.867Z,71.00
2018-09-17T14:31:01.171Z,72.40
2018-09-17T14:33:40.306Z,71.60
2018-09-17T14:36:10.684Z,71.50
2018-09-17T14:38:42.633Z,72.70
2018-09-17T14:41:12.601Z,70.80
2018-09-17T14:43:43.102Z,72.80
2018-09-17T14:46:14.593Z,71.30
2018-09-17T14:48:45.899Z,72.10
2018-09-17T14:51:22.229Z,71.30
2018-09-17T14:54:07.784Z,70.50
2018-09-17T14:56:39.385Z,69.60
2018-09-17T14:59:08.545Z,72.50
2018-09-17T15:01:39.760Z,68.00
2018-09-17T15:04:32.655Z,68.20
2018-09-17T15:07:03.153Z,68.10
2018-09-17T15:23:09.162Z,70.10
2018-09-17T15:28:25.818Z,71.60
2018-09-17T15:31:01.122Z,68.40
2018-09-17T15:33:33.179Z,69.70
2018-09-17T15:36:05.370Z,69.90
2018-09-17T15:38:34.039Z,71.20
2018-09-17T15:41:02.775Z,69.50
2018-09-17T15:43:31.889Z,66.20
2018-09-17T15:46:07.436Z,68.00
2018-09-17T15:48:49.062Z,69.10
2018-09-17T15:51:18.045Z,70.00
2018-09-17T15:57:02.746Z,70.60
2018-09-17T16:03:23.912Z,75.50
2018-09-17T16:05:59.829Z,71.20
2018-09-17T16:08:42.266Z,74.90
2018-09-17T16:11:12.304Z,73.70
2018-09-17T16:13:41.492Z,70.60
2018-09-17T16:16:12.306Z,73.70
2018-09-17T16:18:41.119Z,71.80
2018-09-17T16:21:25.751Z,73.30
2018-09-17T16:23:58.430Z,74.70
2018-09-17T16:26:27.629Z,75.90
2018-09-17T16:28:57.693Z,72.00
2018-09-17T16:31:39.714Z,74.10
2018-09-17T16:34:10.706Z,75.70
2018-09-17T16:37:15.926Z,74.70
2018-09-17T16:40:49.695Z,75.50
2018-09-17T16:43:25.134Z,71.80
2018-09-17T16:45:59.173Z,76.20
2018-09-17T16:48:35.019Z,76.90
2018-09-17T16:51:11.703Z,76.50
2018-09-17T16:53:43.490Z,77.50
2018-09-17T16:56:12.375Z,75.30
2018-09-17T16:58:41.214Z,76.60
2018-09-17T17:01:13.162Z,76.50
2018-09-17T17:03:46.027Z,76.30
2018-09-17T17:06:16.573Z,77.70
2018-09-17T17:08:45.961Z,77.70
2018-09-17T17:11:16.138Z,77.70
2018-09-17T17:13:47.409Z,79.00
2018-09-17T17:16:16.079Z,78.20
2018-09-17T17:18:44.733Z,79.00
2018-09-17T17:21:18.132Z,78.30
2018-09-17T17:23:59.853Z,78.30
2018-09-17T17:26:28.252Z,77.70
2018-09-17T17:28:58.091Z,77.70
2018-09-17T17:31:27.734Z,77.70
2018-09-17T17:33:56.549Z,79.00
2018-09-17T17:36:44.792Z,78.10
2018-09-17T17:39:14.599Z,78.80
2018-09-17T17:41:42.877Z,79.30
2018-09-17T17:44:14.056Z,79.80
2018-09-17T17:46:47.633Z,79.90
2018-09-17T17:49:17.174Z,80.00
2018-09-17T17:51:47.584Z,79.80
2018-09-17T17:54:15.972Z,81.10
2018-09-17T17:56:47.880Z,81.70
2018-09-17T17:59:20.606Z,82.70
2018-09-17T18:01:49.266Z,82.20
2018-09-17T18:04:23.085Z,82.60
2018-09-17T18:07:03.494Z,82.90
2018-09-17T18:09:32.006Z,83.60
2018-09-17T18:12:02.985Z,85.50
2018-09-17T18:14:31.560Z,85.00
2018-09-17T18:17:02.082Z,84.70
2018-09-17T18:19:30.519Z,85.30
2018-09-17T18:21:58.993Z,85.60
2018-09-17T18:24:30.862Z,85.90
2018-09-17T18:27:00.526Z,87.00
2018-09-17T18:29:33.094Z,87.70
2018-09-17T18:45:26.951Z,89.00
2018-09-17T18:47:56.516Z,91.70
2018-09-17T18:50:25.187Z,91.80
2018-09-17T18:52:54.846Z,92.20
2018-09-17T18:55:24.360Z,92.40
2018-09-17T18:57:54.337Z,93.20
2018-09-17T19:00:24.755Z,93.00
2018-09-17T19:02:53.475Z,93.60
2018-09-17T19:05:21.976Z,93.90
2018-09-17T19:07:50.662Z,94.20
2018-09-17T19:10:22.379Z,94.90
2018-09-17T19:12:50.962Z,94.90
2018-09-17T19:15:27.546Z,95.10
2018-09-17T19:18:01.225Z,95.30
2018-09-17T19:20:29.856Z,95.60
2018-09-17T19:23:04.014Z,95.70
2018-09-17T19:25:32.727Z,96.40
2018-09-17T19:31:00.696Z,95.50
2018-09-17T19:33:33.669Z,95.80
2018-09-17T19:36:04.662Z,96.50
2018-09-17T19:38:45.247Z,96.20
2018-09-17T19:41:22.646Z,96.10
2018-09-17T19:44:01.806Z,96.40
2018-09-17T19:46:31.193Z,96.00
2018-09-17T19:49:00.186Z,96.00
2018-09-17T19:51:34.794Z,96.40
2018-09-17T19:54:03.912Z,97.00
2018-09-17T19:56:32.524Z,97.00
2018-09-17T19:59:10.382Z,97.10
2018-09-17T20:01:38.778Z,97.60
2018-09-17T20:04:12.996Z,97.70
2018-09-17T20:06:41.705Z,98.20
2018-09-17T20:09:11.449Z,98.00
2018-09-17T20:11:43.391Z,98.40
2018-09-17T20:14:13.117Z,98.70
2018-09-17T20:16:42.940Z,98.90
2018-09-17T20:19:12.621Z,98.40
2018-09-17T20:21:41.251Z,99.20
2018-09-17T20:24:16.783Z,99.60
2018-09-17T20:26:51.970Z,99.80
2018-09-17T20:29:22.706Z,99.00
2018-09-17T20:31:57.795Z,99.00
2018-09-17T20:34:26.683Z,99.90
2018-09-17T20:36:57.013Z,99.80
2018-09-17T20:39:27.914Z,99.90
2018-09-17T20:44:46.655Z,99.90
2018-09-17T20:47:16.026Z,99.90
2018-09-17T20:49:47.750Z,99.90
2018-09-17T20:52:26.452Z,99.90
2018-09-17T20:58:05.826Z,99.90
2018-09-17T21:00:37.600Z,99.90
2018-09-17T21:03:06.413Z,99.90
2018-09-17T21:05:48.853Z,99.90
2018-09-17T21:08:42.654Z,99.90
2018-09-17T21:11:28.467Z,99.90
2018-09-17T21:14:09.213Z,99.90
2018-09-17T21:16:39.206Z,99.90
2018-09-17T21:19:08.721Z,99.90
2018-09-17T21:21:40.037Z,99.90
2018-09-17T21:29:44.370Z,99.90
2018-09-17T21:32:17.399Z,99.90
2018-09-17T21:37:36.776Z,99.70
2018-09-17T21:40:06.289Z,99.10
2018-09-17T21:42:37.589Z,98.90
2018-09-17T21:45:10.953Z,98.90
2018-09-17T21:47:46.479Z,98.60
2018-09-17T21:50:25.277Z,98.70
2018-09-17T21:53:03.346Z,98.10
2018-09-17T21:55:38.566Z,98.10
2018-09-17T21:58:09.715Z,98.00
2018-09-17T22:03:30.097Z,96.80
2018-09-17T22:06:09.605Z,97.20
2018-09-17T22:08:44.126Z,97.20
2018-09-17T22:14:17.574Z,95.90
2018-09-17T22:16:47.098Z,95.80
2018-09-17T22:19:17.654Z,95.60
2018-09-17T22:21:56.103Z,95.30
2018-09-17T22:24:29.123Z,95.10
2018-09-17T22:27:02.194Z,95.20
2018-09-17T22:29:46.243Z,94.90
2018-09-17T22:32:24.558Z,94.60
2018-09-17T22:34:55.821Z,94.50
2018-09-17T22:37:24.855Z,94.10
2018-09-17T22:39:54.465Z,94.10
2018-09-17T22:42:29.128Z,93.80
2018-09-17T22:45:00.984Z,93.80
2018-09-17T22:47:30.688Z,93.50
2018-09-17T22:50:04.883Z,93.70
2018-09-17T22:52:33.691Z,93.40
2018-09-17T22:55:24.399Z,93.30
2018-09-17T22:57:58.203Z,93.70
2018-09-17T23:00:30.985Z,93.40
2018-09-17T23:03:06.019Z,93.30
2018-09-17T23:05:40.437Z,93.60
2018-09-17T23:08:11.581Z,93.30
2018-09-17T23:10:43.900Z,93.10
2018-09-17T23:13:26.210Z,93.20
2018-09-17T23:18:51.813Z,93.00
2018-09-17T23:21:32.791Z,92.80
2018-09-17T23:27:48.906Z,93.10
2018-09-17T23:34:01.821Z,92.80
2018-09-17T23:36:34.940Z,92.90
2018-09-17T23:39:13.349Z,93.40
2018-09-17T23:41:47.132Z,92.90
2018-09-17T23:44:27.487Z,92.70
2018-09-17T23:46:57.019Z,92.80
2018-09-17T23:52:17.140Z,93.00
2018-09-17T23:54:46.430Z,92.90
2018-09-17T23:57:18.593Z,93.10
